sensor_id;sensor_type;location;lat;lon;timestamp;P1;durP1;ratioP1;P2;durP2;ratioP2
6143;SDS011;3103;49.492;8.474;2022-12-07T00:01:23;9.17;;;5.67;;
6143;SDS011;3103;49.492;8.474;2022-12-07T00:03:52;11.33;;;5.63;;
6143;SDS011;3103;49.492;8.474;2022-12-07T00:06:27;9.33;;;6.30;;
6143;SDS011;3103;49.492;8.474;2022-12-07T00:08:53;10.00;;;6.40;;
6143;SDS011;3103;49.492;8.474;2022-12-07T00:11:21;12.27;;;6.13;;
6143;SDS011;3103;49.492;8.474;2022-12-07T00:13:55;8.13;;;5.50;;
6143;SDS011;3103;49.492;8.474;2022-12-07T00:16:28;6.90;;;4.70;;
6143;SDS011;3103;49.492;8.474;2022-12-07T00:18:56;7.70;;;5.40;;
6143;SDS011;3103;49.492;8.474;2022-12-07T00:21:25;9.07;;;5.17;;
6143;SDS011;3103;49.492;8.474;2022-12-07T00:23:54;9.17;;;5.47;;
6143;SDS011;3103;49.492;8.474;2022-12-07T00:26:23;8.17;;;5.60;;
6143;SDS011;3103;49.492;8.474;2022-12-07T00:28:54;7.93;;;5.30;;
6143;SDS011;3103;49.492;8.474;2022-12-07T00:31:24;11.03;;;5.93;;
6143;SDS011;3103;49.492;8.474;2022-12-07T00:33:55;12.07;;;7.07;;
6143;SDS011;3103;49.492;8.474;2022-12-07T00:36:23;8.93;;;5.73;;
6143;SDS011;3103;49.492;8.474;2022-12-07T00:38:57;10.60;;;6.73;;
6143;SDS011;3103;49.492;8.474;2022-12-07T00:41:26;10.97;;;6.50;;
6143;SDS011;3103;49.492;8.474;2022-12-07T00:43:54;8.47;;;5.70;;
6143;SDS011;3103;49.492;8.474;2022-12-07T00:46:24;9.03;;;5.80;;
6143;SDS011;3103;49.492;8.474;2022-12-07T00:48:51;7.30;;;4.90;;
6143;SDS011;3103;49.492;8.474;2022-12-07T00:51:20;9.40;;;5.10;;
6143;SDS011;3103;49.492;8.474;2022-12-07T00:53:53;7.50;;;5.53;;
6143;SDS011;3103;49.492;8.474;2022-12-07T00:56:24;7.50;;;4.90;;
6143;SDS011;3103;49.492;8.474;2022-12-07T00:58:55;7.23;;;4.60;;
6143;SDS011;3103;49.492;8.474;2022-12-07T01:01:22;6.40;;;4.93;;
6143;SDS011;3103;49.492;8.474;2022-12-07T01:03:51;8.23;;;5.43;;
6143;SDS011;3103;49.492;8.474;2022-12-07T01:06:19;8.33;;;5.33;;
6143;SDS011;3103;49.492;8.474;2022-12-07T01:08:47;8.57;;;5.27;;
6143;SDS011;3103;49.492;8.474;2022-12-07T01:11:16;7.23;;;5.40;;
6143;SDS011;3103;49.492;8.474;2022-12-07T01:13:49;7.67;;;5.03;;
6143;SDS011;3103;49.492;8.474;2022-12-07T01:16:17;8.17;;;5.37;;
6143;SDS011;3103;49.492;8.474;2022-12-07T01:18:47;7.57;;;5.10;;
6143;SDS011;3103;49.492;8.474;2022-12-07T01:21:20;7.43;;;5.43;;
6143;SDS011;3103;49.492;8.474;2022-12-07T01:23:49;7.27;;;5.70;;
6143;SDS011;3103;49.492;8.474;2022-12-07T01:26:18;7.23;;;5.40;;
6143;SDS011;3103;49.492;8.474;2022-12-07T01:28:47;6.30;;;4.90;;
6143;SDS011;3103;49.492;8.474;2022-12-07T01:31:19;7.30;;;5.20;;
6143;SDS011;3103;49.492;8.474;2022-12-07T01:33:48;7.20;;;4.90;;
6143;SDS011;3103;49.492;8.474;2022-12-07T01:36:17;8.90;;;5.67;;
6143;SDS011;3103;49.492;8.474;2022-12-07T01:38:46;7.40;;;4.90;;
6143;SDS011;3103;49.492;8.474;2022-12-07T01:41:15;7.07;;;5.00;;
6143;SDS011;3103;49.492;8.474;2022-12-07T01:47:00;7.73;;;5.07;;
6143;SDS011;3103;49.492;8.474;2022-12-07T01:49:39;8.33;;;5.53;;
6143;SDS011;3103;49.492;8.474;2022-12-07T01:52:29;9.27;;;6.13;;
6143;SDS011;3103;49.492;8.474;2022-12-07T01:55:09;9.77;;;5.37;;
6143;SDS011;3103;49.492;8.474;2022-12-07T01:57:43;10.33;;;5.00;;
6143;SDS011;3103;49.492;8.474;2022-12-07T02:00:15;11.20;;;6.00;;
6143;SDS011;3103;49.492;8.474;2022-12-07T02:02:47;9.23;;;5.60;;
6143;SDS011;3103;49.492;8.474;2022-12-07T02:05:18;8.17;;;5.20;;
6143;SDS011;3103;49.492;8.474;2022-12-07T02:07:47;9.90;;;5.70;;
6143;SDS011;3103;49.492;8.474;2022-12-07T02:10:17;10.47;;;6.73;;
6143;SDS011;3103;49.492;8.474;2022-12-07T02:12:47;11.37;;;5.70;;
6143;SDS011;3103;49.492;8.474;2022-12-07T02:18:20;6.97;;;4.73;;
6143;SDS011;3103;49.492;8.474;2022-12-07T02:24:16;8.03;;;5.80;;
6143;SDS011;3103;49.492;8.474;2022-12-07T02:30:10;7.80;;;5.33;;
6143;SDS011;3103;49.492;8.474;2022-12-07T02:32:42;8.13;;;5.00;;
6143;SDS011;3103;49.492;8.474;2022-12-07T02:37:53;10.40;;;5.77;;
6143;SDS011;3103;49.492;8.474;2022-12-07T02:40:31;6.53;;;5.03;;
6143;SDS011;3103;49.492;8.474;2022-12-07T02:43:07;7.43;;;4.90;;
6143;SDS011;3103;49.492;8.474;2022-12-07T02:45:35;9.47;;;4.87;;
6143;SDS011;3103;49.492;8.474;2022-12-07T02:48:05;8.87;;;5.23;;
6143;SDS011;3103;49.492;8.474;2022-12-07T02:50:38;6.57;;;4.87;;
6143;SDS011;3103;49.492;8.474;2022-12-07T02:53:04;8.63;;;4.90;;
6143;SDS011;3103;49.492;8.474;2022-12-07T02:55:34;8.83;;;4.97;;
6143;SDS011;3103;49.492;8.474;2022-12-07T02:58:27;6.10;;;5.03;;
6143;SDS011;3103;49.492;8.474;2022-12-07T03:01:11;7.17;;;4.73;;
6143;SDS011;3103;49.492;8.474;2022-12-07T03:03:48;7.60;;;5.23;;
6143;SDS011;3103;49.492;8.474;2022-12-07T03:06:31;7.60;;;4.30;;
6143;SDS011;3103;49.492;8.474;2022-12-07T03:12:28;6.50;;;4.43;;
6143;SDS011;3103;49.492;8.474;2022-12-07T03:15:05;6.80;;;4.97;;
6143;SDS011;3103;49.492;8.474;2022-12-07T03:17:37;8.60;;;4.77;;
6143;SDS011;3103;49.492;8.474;2022-12-07T03:20:07;8.07;;;5.27;;
6143;SDS011;3103;49.492;8.474;2022-12-07T03:22:37;7.73;;;5.03;;
6143;SDS011;3103;49.492;8.474;2022-12-07T03:25:11;7.87;;;4.83;;
6143;SDS011;3103;49.492;8.474;2022-12-07T03:27:49;8.40;;;5.00;;
6143;SDS011;3103;49.492;8.474;2022-12-07T03:30:29;9.13;;;5.10;;
6143;SDS011;3103;49.492;8.474;2022-12-07T03:33:03;7.90;;;4.83;;
6143;SDS011;3103;49.492;8.474;2022-12-07T03:35:45;8.00;;;5.37;;
6143;SDS011;3103;49.492;8.474;2022-12-07T03:38:22;9.57;;;6.17;;
6143;SDS011;3103;49.492;8.474;2022-12-07T03:43:25;8.50;;;5.57;;
6143;SDS011;3103;49.492;8.474;2022-12-07T03:46:02;8.03;;;5.20;;
6143;SDS011;3103;49.492;8.474;2022-12-07T03:54:30;8.53;;;5.07;;
6143;SDS011;3103;49.492;8.474;2022-12-07T03:57:03;6.73;;;4.87;;
6143;SDS011;3103;49.492;8.474;2022-12-07T03:59:31;10.33;;;4.90;;
6143;SDS011;3103;49.492;8.474;2022-12-07T04:02:03;7.90;;;4.60;;
6143;SDS011;3103;49.492;8.474;2022-12-07T04:04:31;6.97;;;3.93;;
6143;SDS011;3103;49.492;8.474;2022-12-07T04:06:59;5.57;;;4.30;;
6143;SDS011;3103;49.492;8.474;2022-12-07T04:09:27;8.27;;;4.63;;
6143;SDS011;3103;49.492;8.474;2022-12-07T04:11:54;9.73;;;4.80;;
6143;SDS011;3103;49.492;8.474;2022-12-07T04:14:21;7.07;;;4.90;;
6143;SDS011;3103;49.492;8.474;2022-12-07T04:16:49;6.07;;;4.33;;
6143;SDS011;3103;49.492;8.474;2022-12-07T04:19:21;6.53;;;4.67;;
6143;SDS011;3103;49.492;8.474;2022-12-07T04:21:49;5.93;;;4.27;;
6143;SDS011;3103;49.492;8.474;2022-12-07T04:24:16;6.17;;;4.77;;
6143;SDS011;3103;49.492;8.474;2022-12-07T04:26:44;6.53;;;4.70;;
6143;SDS011;3103;49.492;8.474;2022-12-07T04:29:12;10.70;;;4.17;;
6143;SDS011;3103;49.492;8.474;2022-12-07T04:31:39;5.10;;;3.93;;
6143;SDS011;3103;49.492;8.474;2022-12-07T04:34:06;7.00;;;4.77;;
6143;SDS011;3103;49.492;8.474;2022-12-07T04:36:33;8.17;;;5.17;;
6143;SDS011;3103;49.492;8.474;2022-12-07T04:39:01;6.23;;;4.27;;
6143;SDS011;3103;49.492;8.474;2022-12-07T04:41:28;7.97;;;5.07;;
6143;SDS011;3103;49.492;8.474;2022-12-07T04:43:57;6.63;;;4.73;;
6143;SDS011;3103;49.492;8.474;2022-12-07T04:46:28;6.13;;;4.43;;
6143;SDS011;3103;49.492;8.474;2022-12-07T04:48:56;6.77;;;4.80;;
6143;SDS011;3103;49.492;8.474;2022-12-07T04:51:25;7.57;;;4.60;;
6143;SDS011;3103;49.492;8.474;2022-12-07T04:53:54;6.50;;;4.77;;
6143;SDS011;3103;49.492;8.474;2022-12-07T04:56:22;7.07;;;4.70;;
6143;SDS011;3103;49.492;8.474;2022-12-07T04:58:50;6.60;;;5.10;;
6143;SDS011;3103;49.492;8.474;2022-12-07T05:01:19;7.60;;;4.60;;
6143;SDS011;3103;49.492;8.474;2022-12-07T05:03:46;7.23;;;4.63;;
6143;SDS011;3103;49.492;8.474;2022-12-07T05:06:13;7.30;;;4.80;;
6143;SDS011;3103;49.492;8.474;2022-12-07T05:08:41;10.57;;;4.80;;
6143;SDS011;3103;49.492;8.474;2022-12-07T05:11:08;6.70;;;4.30;;
6143;SDS011;3103;49.492;8.474;2022-12-07T05:13:36;5.47;;;4.23;;
6143;SDS011;3103;49.492;8.474;2022-12-07T05:16:02;8.27;;;4.80;;
6143;SDS011;3103;49.492;8.474;2022-12-07T05:18:29;8.93;;;5.40;;
6143;SDS011;3103;49.492;8.474;2022-12-07T05:20:57;5.53;;;4.23;;
6143;SDS011;3103;49.492;8.474;2022-12-07T05:23:24;5.97;;;4.10;;
6143;SDS011;3103;49.492;8.474;2022-12-07T05:25:53;7.53;;;4.73;;
6143;SDS011;3103;49.492;8.474;2022-12-07T05:28:19;8.00;;;4.27;;
6143;SDS011;3103;49.492;8.474;2022-12-07T05:30:46;7.37;;;4.47;;
6143;SDS011;3103;49.492;8.474;2022-12-07T05:33:13;6.17;;;4.63;;
6143;SDS011;3103;49.492;8.474;2022-12-07T05:35:39;5.90;;;4.30;;
6143;SDS011;3103;49.492;8.474;2022-12-07T05:38:06;7.00;;;4.90;;
6143;SDS011;3103;49.492;8.474;2022-12-07T05:40:33;7.37;;;4.87;;
6143;SDS011;3103;49.492;8.474;2022-12-07T05:43:00;7.30;;;4.80;;
6143;SDS011;3103;49.492;8.474;2022-12-07T05:45:30;9.03;;;4.87;;
6143;SDS011;3103;49.492;8.474;2022-12-07T05:47:57;7.27;;;4.40;;
6143;SDS011;3103;49.492;8.474;2022-12-07T05:50:25;5.73;;;4.47;;
6143;SDS011;3103;49.492;8.474;2022-12-07T05:52:59;6.13;;;4.10;;
6143;SDS011;3103;49.492;8.474;2022-12-07T05:55:26;6.00;;;4.57;;
6143;SDS011;3103;49.492;8.474;2022-12-07T05:57:53;9.00;;;5.30;;
6143;SDS011;3103;49.492;8.474;2022-12-07T06:00:38;8.07;;;4.90;;
6143;SDS011;3103;49.492;8.474;2022-12-07T06:03:05;6.80;;;4.43;;
6143;SDS011;3103;49.492;8.474;2022-12-07T06:05:32;6.00;;;4.27;;
6143;SDS011;3103;49.492;8.474;2022-12-07T06:07:58;6.13;;;4.40;;
6143;SDS011;3103;49.492;8.474;2022-12-07T06:10:31;6.83;;;4.63;;
6143;SDS011;3103;49.492;8.474;2022-12-07T06:12:57;7.57;;;3.97;;
6143;SDS011;3103;49.492;8.474;2022-12-07T06:15:24;6.90;;;4.77;;
6143;SDS011;3103;49.492;8.474;2022-12-07T06:17:51;7.03;;;4.40;;
6143;SDS011;3103;49.492;8.474;2022-12-07T06:20:18;8.10;;;5.10;;
6143;SDS011;3103;49.492;8.474;2022-12-07T06:22:44;10.50;;;4.57;;
6143;SDS011;3103;49.492;8.474;2022-12-07T06:25:11;8.53;;;4.90;;
6143;SDS011;3103;49.492;8.474;2022-12-07T06:27:38;7.47;;;4.67;;
6143;SDS011;3103;49.492;8.474;2022-12-07T06:30:05;9.93;;;5.03;;
6143;SDS011;3103;49.492;8.474;2022-12-07T06:32:35;10.63;;;5.37;;
6143;SDS011;3103;49.492;8.474;2022-12-07T06:35:03;6.37;;;4.57;;
6143;SDS011;3103;49.492;8.474;2022-12-07T06:37:32;7.97;;;5.30;;
6143;SDS011;3103;49.492;8.474;2022-12-07T06:39:59;9.93;;;6.27;;
6143;SDS011;3103;49.492;8.474;2022-12-07T06:42:26;6.73;;;5.33;;
6143;SDS011;3103;49.492;8.474;2022-12-07T06:44:53;9.70;;;5.10;;
6143;SDS011;3103;49.492;8.474;2022-12-07T06:47:19;7.30;;;4.70;;
6143;SDS011;3103;49.492;8.474;2022-12-07T06:50:06;7.80;;;5.10;;
6143;SDS011;3103;49.492;8.474;2022-12-07T06:52:34;7.03;;;4.73;;
6143;SDS011;3103;49.492;8.474;2022-12-07T06:55:00;7.97;;;4.87;;
6143;SDS011;3103;49.492;8.474;2022-12-07T06:57:28;8.87;;;5.50;;
6143;SDS011;3103;49.492;8.474;2022-12-07T06:59:55;7.00;;;4.93;;
6143;SDS011;3103;49.492;8.474;2022-12-07T07:02:22;14.17;;;5.07;;
6143;SDS011;3103;49.492;8.474;2022-12-07T07:04:48;6.37;;;4.67;;
6143;SDS011;3103;49.492;8.474;2022-12-07T07:07:15;9.93;;;5.30;;
6143;SDS011;3103;49.492;8.474;2022-12-07T07:09:41;9.37;;;5.23;;
6143;SDS011;3103;49.492;8.474;2022-12-07T07:12:08;8.70;;;5.57;;
6143;SDS011;3103;49.492;8.474;2022-12-07T07:14:35;8.03;;;4.67;;
6143;SDS011;3103;49.492;8.474;2022-12-07T07:17:02;7.97;;;5.40;;
6143;SDS011;3103;49.492;8.474;2022-12-07T07:19:29;9.83;;;5.73;;
6143;SDS011;3103;49.492;8.474;2022-12-07T07:21:56;8.00;;;5.20;;
6143;SDS011;3103;49.492;8.474;2022-12-07T07:24:22;8.80;;;5.67;;
6143;SDS011;3103;49.492;8.474;2022-12-07T07:26:49;8.63;;;5.10;;
6143;SDS011;3103;49.492;8.474;2022-12-07T07:29:16;6.83;;;5.10;;
6143;SDS011;3103;49.492;8.474;2022-12-07T07:31:43;11.13;;;4.70;;
6143;SDS011;3103;49.492;8.474;2022-12-07T07:34:11;7.70;;;5.33;;
6143;SDS011;3103;49.492;8.474;2022-12-07T07:36:38;11.67;;;5.73;;
6143;SDS011;3103;49.492;8.474;2022-12-07T07:39:05;7.80;;;5.43;;
6143;SDS011;3103;49.492;8.474;2022-12-07T07:41:35;9.73;;;5.47;;
6143;SDS011;3103;49.492;8.474;2022-12-07T07:44:02;10.67;;;6.70;;
6143;SDS011;3103;49.492;8.474;2022-12-07T07:46:28;7.10;;;5.07;;
6143;SDS011;3103;49.492;8.474;2022-12-07T07:48:55;8.67;;;5.63;;
6143;SDS011;3103;49.492;8.474;2022-12-07T07:51:22;10.30;;;5.90;;
6143;SDS011;3103;49.492;8.474;2022-12-07T07:53:48;10.47;;;6.13;;
6143;SDS011;3103;49.492;8.474;2022-12-07T07:56:15;10.20;;;6.00;;
6143;SDS011;3103;49.492;8.474;2022-12-07T07:58:42;9.20;;;6.10;;
6143;SDS011;3103;49.492;8.474;2022-12-07T08:01:09;8.67;;;5.97;;
6143;SDS011;3103;49.492;8.474;2022-12-07T08:03:36;8.57;;;5.30;;
6143;SDS011;3103;49.492;8.474;2022-12-07T08:06:03;11.93;;;6.13;;
6143;SDS011;3103;49.492;8.474;2022-12-07T08:08:30;7.90;;;5.77;;
6143;SDS011;3103;49.492;8.474;2022-12-07T08:10:58;9.83;;;6.40;;
6143;SDS011;3103;49.492;8.474;2022-12-07T08:13:27;8.77;;;6.00;;
6143;SDS011;3103;49.492;8.474;2022-12-07T08:15:57;8.13;;;5.47;;
6143;SDS011;3103;49.492;8.474;2022-12-07T08:18:24;9.20;;;5.87;;
6143;SDS011;3103;49.492;8.474;2022-12-07T08:20:51;7.60;;;5.77;;
6143;SDS011;3103;49.492;8.474;2022-12-07T08:23:17;7.57;;;5.73;;
6143;SDS011;3103;49.492;8.474;2022-12-07T08:25:44;8.83;;;5.60;;
6143;SDS011;3103;49.492;8.474;2022-12-07T08:28:11;10.00;;;6.73;;
6143;SDS011;3103;49.492;8.474;2022-12-07T08:30:37;15.70;;;6.27;;
6143;SDS011;3103;49.492;8.474;2022-12-07T08:33:04;8.87;;;6.13;;
6143;SDS011;3103;49.492;8.474;2022-12-07T08:35:32;10.90;;;6.47;;
6143;SDS011;3103;49.492;8.474;2022-12-07T08:37:59;8.63;;;5.43;;
6143;SDS011;3103;49.492;8.474;2022-12-07T08:40:28;11.50;;;6.53;;
6143;SDS011;3103;49.492;8.474;2022-12-07T08:42:55;13.10;;;7.53;;
6143;SDS011;3103;49.492;8.474;2022-12-07T08:45:21;8.97;;;5.67;;
6143;SDS011;3103;49.492;8.474;2022-12-07T08:48:11;10.93;;;6.00;;
6143;SDS011;3103;49.492;8.474;2022-12-07T08:50:40;14.07;;;6.13;;
6143;SDS011;3103;49.492;8.474;2022-12-07T08:53:14;9.87;;;6.60;;
6143;SDS011;3103;49.492;8.474;2022-12-07T08:55:42;10.60;;;7.33;;
6143;SDS011;3103;49.492;8.474;2022-12-07T08:58:15;12.07;;;5.93;;
6143;SDS011;3103;49.492;8.474;2022-12-07T09:00:42;10.23;;;6.07;;
6143;SDS011;3103;49.492;8.474;2022-12-07T09:03:09;10.97;;;6.47;;
6143;SDS011;3103;49.492;8.474;2022-12-07T09:05:35;12.87;;;6.73;;
6143;SDS011;3103;49.492;8.474;2022-12-07T09:08:02;8.20;;;6.10;;
6143;SDS011;3103;49.492;8.474;2022-12-07T09:10:29;10.63;;;6.97;;
6143;SDS011;3103;49.492;8.474;2022-12-07T09:12:56;12.03;;;6.67;;
6143;SDS011;3103;49.492;8.474;2022-12-07T09:15:27;11.57;;;6.70;;
6143;SDS011;3103;49.492;8.474;2022-12-07T09:17:55;10.57;;;6.07;;
6143;SDS011;3103;49.492;8.474;2022-12-07T09:20:21;10.83;;;6.30;;
6143;SDS011;3103;49.492;8.474;2022-12-07T09:22:53;11.00;;;6.60;;
6143;SDS011;3103;49.492;8.474;2022-12-07T09:25:20;10.63;;;6.73;;
6143;SDS011;3103;49.492;8.474;2022-12-07T09:27:46;10.07;;;6.83;;
6143;SDS011;3103;49.492;8.474;2022-12-07T09:30:13;10.43;;;6.63;;
6143;SDS011;3103;49.492;8.474;2022-12-07T09:32:40;12.52;;;7.25;;
6143;SDS011;3103;49.492;8.474;2022-12-07T09:35:07;11.90;;;6.37;;
6143;SDS011;3103;49.492;8.474;2022-12-07T09:37:33;12.27;;;7.57;;
6143;SDS011;3103;49.492;8.474;2022-12-07T09:40:02;9.90;;;6.50;;
6143;SDS011;3103;49.492;8.474;2022-12-07T09:42:38;10.13;;;6.60;;
6143;SDS011;3103;49.492;8.474;2022-12-07T09:45:23;9.47;;;6.50;;
6143;SDS011;3103;49.492;8.474;2022-12-07T09:47:57;9.43;;;6.03;;
6143;SDS011;3103;49.492;8.474;2022-12-07T09:50:25;9.53;;;6.33;;
6143;SDS011;3103;49.492;8.474;2022-12-07T09:52:54;12.07;;;6.23;;
6143;SDS011;3103;49.492;8.474;2022-12-07T09:55:29;12.27;;;8.20;;
6143;SDS011;3103;49.492;8.474;2022-12-07T09:57:57;10.10;;;5.90;;
6143;SDS011;3103;49.492;8.474;2022-12-07T10:00:26;9.40;;;6.43;;
6143;SDS011;3103;49.492;8.474;2022-12-07T10:02:55;9.20;;;6.43;;
6143;SDS011;3103;49.492;8.474;2022-12-07T10:05:30;11.00;;;6.77;;
6143;SDS011;3103;49.492;8.474;2022-12-07T10:08:03;9.37;;;6.07;;
6143;SDS011;3103;49.492;8.474;2022-12-07T10:10:31;9.83;;;5.60;;
6143;SDS011;3103;49.492;8.474;2022-12-07T10:13:05;12.10;;;7.90;;
6143;SDS011;3103;49.492;8.474;2022-12-07T10:18:18;16.13;;;10.53;;
6143;SDS011;3103;49.492;8.474;2022-12-07T10:21:03;12.83;;;7.67;;
6143;SDS011;3103;49.492;8.474;2022-12-07T10:23:35;11.87;;;6.70;;
6143;SDS011;3103;49.492;8.474;2022-12-07T10:29:14;14.13;;;9.13;;
6143;SDS011;3103;49.492;8.474;2022-12-07T10:31:45;14.18;;;9.40;;
6143;SDS011;3103;49.492;8.474;2022-12-07T10:34:25;12.53;;;7.03;;
6143;SDS011;3103;49.492;8.474;2022-12-07T10:39:47;12.07;;;6.50;;
6143;SDS011;3103;49.492;8.474;2022-12-07T10:44:45;10.20;;;6.13;;
6143;SDS011;3103;49.492;8.474;2022-12-07T10:55:22;8.90;;;4.90;;
6143;SDS011;3103;49.492;8.474;2022-12-07T11:00:58;12.90;;;6.90;;
6143;SDS011;3103;49.492;8.474;2022-12-07T11:12:47;9.97;;;5.13;;
6143;SDS011;3103;49.492;8.474;2022-12-07T11:18:39;7.53;;;4.80;;
6143;SDS011;3103;49.492;8.474;2022-12-07T11:21:39;10.73;;;4.90;;
6143;SDS011;3103;49.492;8.474;2022-12-07T11:24:19;9.20;;;5.57;;
6143;SDS011;3103;49.492;8.474;2022-12-07T11:27:00;8.23;;;5.50;;
6143;SDS011;3103;49.492;8.474;2022-12-07T11:35:05;9.60;;;5.23;;
6143;SDS011;3103;49.492;8.474;2022-12-07T11:37:37;11.30;;;5.37;;
6143;SDS011;3103;49.492;8.474;2022-12-07T11:46:05;8.97;;;4.83;;
6143;SDS011;3103;49.492;8.474;2022-12-07T11:48:58;8.90;;;4.90;;
6143;SDS011;3103;49.492;8.474;2022-12-07T11:51:31;7.13;;;4.60;;
6143;SDS011;3103;49.492;8.474;2022-12-07T11:54:03;7.70;;;4.93;;
6143;SDS011;3103;49.492;8.474;2022-12-07T11:56:39;6.30;;;4.37;;
6143;SDS011;3103;49.492;8.474;2022-12-07T11:59:09;6.43;;;4.20;;
6143;SDS011;3103;49.492;8.474;2022-12-07T12:01:53;7.77;;;4.17;;
6143;SDS011;3103;49.492;8.474;2022-12-07T12:07:33;5.90;;;3.77;;
6143;SDS011;3103;49.492;8.474;2022-12-07T12:17:10;6.53;;;4.00;;
6143;SDS011;3103;49.492;8.474;2022-12-07T12:20:13;10.90;;;6.47;;
6143;SDS011;3103;49.492;8.474;2022-12-07T12:22:44;8.50;;;5.17;;
6143;SDS011;3103;49.492;8.474;2022-12-07T12:25:18;11.37;;;6.17;;
6143;SDS011;3103;49.492;8.474;2022-12-07T12:27:52;9.00;;;4.97;;
6143;SDS011;3103;49.492;8.474;2022-12-07T12:30:26;11.67;;;6.37;;
6143;SDS011;3103;49.492;8.474;2022-12-07T12:33:13;8.77;;;5.90;;
6143;SDS011;3103;49.492;8.474;2022-12-07T12:35:46;14.48;;;8.23;;
6143;SDS011;3103;49.492;8.474;2022-12-07T12:46:47;6.63;;;3.97;;
6143;SDS011;3103;49.492;8.474;2022-12-07T12:51:43;15.00;;;7.43;;
6143;SDS011;3103;49.492;8.474;2022-12-07T12:54:20;10.63;;;5.70;;
6143;SDS011;3103;49.492;8.474;2022-12-07T13:02:27;12.70;;;5.73;;
6143;SDS011;3103;49.492;8.474;2022-12-07T13:05:01;10.40;;;4.60;;
6143;SDS011;3103;49.492;8.474;2022-12-07T13:12:59;7.40;;;4.33;;
6143;SDS011;3103;49.492;8.474;2022-12-07T13:15:33;5.80;;;3.40;;
6143;SDS011;3103;49.492;8.474;2022-12-07T13:37:15;4.80;;;3.40;;
6143;SDS011;3103;49.492;8.474;2022-12-07T13:39:57;3.67;;;2.63;;
6143;SDS011;3103;49.492;8.474;2022-12-07T13:42:29;6.33;;;3.50;;
6143;SDS011;3103;49.492;8.474;2022-12-07T13:44:58;7.80;;;3.57;;
6143;SDS011;3103;49.492;8.474;2022-12-07T13:47:36;6.20;;;3.57;;
6143;SDS011;3103;49.492;8.474;2022-12-07T13:50:26;9.17;;;3.77;;
6143;SDS011;3103;49.492;8.474;2022-12-07T13:52:56;7.70;;;3.47;;
6143;SDS011;3103;49.492;8.474;2022-12-07T13:55:25;5.57;;;3.10;;
6143;SDS011;3103;49.492;8.474;2022-12-07T13:57:54;4.43;;;2.90;;
6143;SDS011;3103;49.492;8.474;2022-12-07T14:00:26;4.90;;;3.43;;
6143;SDS011;3103;49.492;8.474;2022-12-07T14:02:56;4.30;;;2.90;;
6143;SDS011;3103;49.492;8.474;2022-12-07T14:05:29;8.07;;;3.47;;
6143;SDS011;3103;49.492;8.474;2022-12-07T14:08:02;4.87;;;3.10;;
6143;SDS011;3103;49.492;8.474;2022-12-07T14:10:32;5.90;;;3.60;;
6143;SDS011;3103;49.492;8.474;2022-12-07T14:13:02;6.33;;;3.37;;
6143;SDS011;3103;49.492;8.474;2022-12-07T14:15:43;4.60;;;3.30;;
6143;SDS011;3103;49.492;8.474;2022-12-07T14:23:39;5.23;;;3.87;;
6143;SDS011;3103;49.492;8.474;2022-12-07T14:26:13;9.67;;;4.20;;
6143;SDS011;3103;49.492;8.474;2022-12-07T14:28:42;9.90;;;4.90;;
6143;SDS011;3103;49.492;8.474;2022-12-07T14:31:13;12.40;;;4.67;;
6143;SDS011;3103;49.492;8.474;2022-12-07T14:33:58;8.93;;;4.77;;
6143;SDS011;3103;49.492;8.474;2022-12-07T14:36:25;7.53;;;4.70;;
6143;SDS011;3103;49.492;8.474;2022-12-07T14:38:52;9.10;;;4.90;;
6143;SDS011;3103;49.492;8.474;2022-12-07T14:41:22;10.40;;;5.20;;
6143;SDS011;3103;49.492;8.474;2022-12-07T14:44:11;11.50;;;5.20;;
6143;SDS011;3103;49.492;8.474;2022-12-07T14:46:59;9.10;;;5.37;;
6143;SDS011;3103;49.492;8.474;2022-12-07T14:49:45;5.70;;;3.73;;
6143;SDS011;3103;49.492;8.474;2022-12-07T14:52:13;6.43;;;3.50;;
6143;SDS011;3103;49.492;8.474;2022-12-07T14:55:04;7.63;;;3.70;;
6143;SDS011;3103;49.492;8.474;2022-12-07T14:57:32;6.83;;;3.40;;
6143;SDS011;3103;49.492;8.474;2022-12-07T14:59:58;6.43;;;3.67;;
6143;SDS011;3103;49.492;8.474;2022-12-07T15:02:30;7.50;;;4.27;;
6143;SDS011;3103;49.492;8.474;2022-12-07T15:04:56;4.40;;;3.37;;
6143;SDS011;3103;49.492;8.474;2022-12-07T15:07:23;6.10;;;2.90;;
6143;SDS011;3103;49.492;8.474;2022-12-07T15:09:50;7.27;;;3.43;;
6143;SDS011;3103;49.492;8.474;2022-12-07T15:12:16;5.07;;;3.50;;
6143;SDS011;3103;49.492;8.474;2022-12-07T15:14:43;4.63;;;3.27;;
6143;SDS011;3103;49.492;8.474;2022-12-07T15:17:10;7.57;;;3.10;;
6143;SDS011;3103;49.492;8.474;2022-12-07T15:19:53;4.27;;;3.10;;
6143;SDS011;3103;49.492;8.474;2022-12-07T15:22:20;5.53;;;3.43;;
6143;SDS011;3103;49.492;8.474;2022-12-07T15:24:46;5.90;;;3.40;;
6143;SDS011;3103;49.492;8.474;2022-12-07T15:27:13;5.03;;;3.57;;
6143;SDS011;3103;49.492;8.474;2022-12-07T15:29:40;5.20;;;3.40;;
6143;SDS011;3103;49.492;8.474;2022-12-07T15:32:06;4.97;;;3.30;;
6143;SDS011;3103;49.492;8.474;2022-12-07T15:34:33;8.07;;;3.87;;
6143;SDS011;3103;49.492;8.474;2022-12-07T15:37:06;5.07;;;3.40;;
6143;SDS011;3103;49.492;8.474;2022-12-07T15:39:34;5.67;;;3.03;;
6143;SDS011;3103;49.492;8.474;2022-12-07T15:42:02;6.17;;;4.13;;
6143;SDS011;3103;49.492;8.474;2022-12-07T15:44:29;7.50;;;3.77;;
6143;SDS011;3103;49.492;8.474;2022-12-07T15:47:14;5.80;;;3.50;;
6143;SDS011;3103;49.492;8.474;2022-12-07T15:49:41;4.77;;;3.53;;
6143;SDS011;3103;49.492;8.474;2022-12-07T15:52:09;8.50;;;3.43;;
6143;SDS011;3103;49.492;8.474;2022-12-07T15:54:36;6.60;;;3.97;;
6143;SDS011;3103;49.492;8.474;2022-12-07T15:57:03;7.67;;;3.57;;
6143;SDS011;3103;49.492;8.474;2022-12-07T15:59:29;5.93;;;3.30;;
6143;SDS011;3103;49.492;8.474;2022-12-07T16:01:56;8.10;;;3.97;;
6143;SDS011;3103;49.492;8.474;2022-12-07T16:04:23;3.47;;;3.00;;
6143;SDS011;3103;49.492;8.474;2022-12-07T16:06:52;5.40;;;4.17;;
6143;SDS011;3103;49.492;8.474;2022-12-07T16:09:19;6.23;;;3.67;;
6143;SDS011;3103;49.492;8.474;2022-12-07T16:11:46;6.37;;;3.70;;
6143;SDS011;3103;49.492;8.474;2022-12-07T16:14:12;6.27;;;3.50;;
6143;SDS011;3103;49.492;8.474;2022-12-07T16:16:40;5.23;;;3.33;;
6143;SDS011;3103;49.492;8.474;2022-12-07T16:19:08;4.47;;;3.57;;
6143;SDS011;3103;49.492;8.474;2022-12-07T16:21:35;7.03;;;4.20;;
6143;SDS011;3103;49.492;8.474;2022-12-07T16:24:03;4.87;;;3.40;;
6143;SDS011;3103;49.492;8.474;2022-12-07T16:26:31;6.37;;;4.13;;
6143;SDS011;3103;49.492;8.474;2022-12-07T16:28:58;6.67;;;4.17;;
6143;SDS011;3103;49.492;8.474;2022-12-07T16:31:26;8.30;;;4.10;;
6143;SDS011;3103;49.492;8.474;2022-12-07T16:33:55;6.87;;;4.53;;
6143;SDS011;3103;49.492;8.474;2022-12-07T16:36:23;5.73;;;3.63;;
6143;SDS011;3103;49.492;8.474;2022-12-07T16:39:12;6.27;;;4.17;;
6143;SDS011;3103;49.492;8.474;2022-12-07T16:41:41;8.97;;;4.57;;
6143;SDS011;3103;49.492;8.474;2022-12-07T16:44:09;6.07;;;4.30;;
6143;SDS011;3103;49.492;8.474;2022-12-07T16:46:37;8.23;;;4.50;;
6143;SDS011;3103;49.492;8.474;2022-12-07T16:49:04;8.87;;;5.37;;
6143;SDS011;3103;49.492;8.474;2022-12-07T16:51:31;10.40;;;5.50;;
6143;SDS011;3103;49.492;8.474;2022-12-07T16:53:58;10.10;;;5.57;;
6143;SDS011;3103;49.492;8.474;2022-12-07T16:56:25;8.77;;;6.17;;
6143;SDS011;3103;49.492;8.474;2022-12-07T16:58:54;10.07;;;5.90;;
6143;SDS011;3103;49.492;8.474;2022-12-07T17:01:21;11.17;;;6.97;;
6143;SDS011;3103;49.492;8.474;2022-12-07T17:03:54;9.87;;;4.93;;
6143;SDS011;3103;49.492;8.474;2022-12-07T17:06:24;9.87;;;5.23;;
6143;SDS011;3103;49.492;8.474;2022-12-07T17:08:53;14.47;;;7.17;;
6143;SDS011;3103;49.492;8.474;2022-12-07T17:11:21;8.53;;;5.73;;
6143;SDS011;3103;49.492;8.474;2022-12-07T17:13:51;11.77;;;5.60;;
6143;SDS011;3103;49.492;8.474;2022-12-07T17:16:36;9.90;;;5.23;;
6143;SDS011;3103;49.492;8.474;2022-12-07T17:19:05;9.20;;;6.17;;
6143;SDS011;3103;49.492;8.474;2022-12-07T17:21:32;9.70;;;5.90;;
6143;SDS011;3103;49.492;8.474;2022-12-07T17:24:00;9.63;;;5.70;;
6143;SDS011;3103;49.492;8.474;2022-12-07T17:26:30;7.60;;;4.80;;
6143;SDS011;3103;49.492;8.474;2022-12-07T17:29:02;11.57;;;4.87;;
6143;SDS011;3103;49.492;8.474;2022-12-07T17:31:29;8.47;;;5.00;;
6143;SDS011;3103;49.492;8.474;2022-12-07T17:33:57;9.57;;;5.00;;
6143;SDS011;3103;49.492;8.474;2022-12-07T17:36:25;8.43;;;4.67;;
6143;SDS011;3103;49.492;8.474;2022-12-07T17:38:54;8.93;;;6.07;;
6143;SDS011;3103;49.492;8.474;2022-12-07T17:41:26;8.77;;;5.00;;
6143;SDS011;3103;49.492;8.474;2022-12-07T17:44:16;7.63;;;4.67;;